sensor_id;sensor_type;location;lat;lon;timestamp;temperature;humidity
19060;DHT22;9663;48.996;8.334;2023-01-29T00:00:00;4.50;70.20
19060;DHT22;9663;48.996;8.334;2023-01-29T00:02:26;5.00;70.30
19060;DHT22;9663;48.996;8.334;2023-01-29T00:04:52;4.80;70.20
19060;DHT22;9663;48.996;8.334;2023-01-29T00:07:18;4.70;69.70
19060;DHT22;9663;48.996;8.334;2023-01-29T00:09:43;4.70;70.20
19060;DHT22;9663;48.996;8.334;2023-01-29T00:12:09;4.40;70.00
19060;DHT22;9663;48.996;8.334;2023-01-29T00:14:35;6.40;72.10
19060;DHT22;9663;48.996;8.334;2023-01-29T00:17:01;4.70;70.30
19060;DHT22;9663;48.996;8.334;2023-01-29T00:19:26;4.70;70.20
19060;DHT22;9663;48.996;8.334;2023-01-29T00:21:52;4.50;70.00
19060;DHT22;9663;48.996;8.334;2023-01-29T00:24:18;4.40;70.00
19060;DHT22;9663;48.996;8.334;2023-01-29T00:26:44;4.90;70.20
19060;DHT22;9663;48.996;8.334;2023-01-29T00:29:10;4.60;69.80
19060;DHT22;9663;48.996;8.334;2023-01-29T00:31:36;3.80;69.60
19060;DHT22;9663;48.996;8.334;2023-01-29T00:34:02;4.90;70.20
19060;DHT22;9663;48.996;8.334;2023-01-29T00:36:27;4.50;70.20
19060;DHT22;9663;48.996;8.334;2023-01-29T00:38:57;4.10;69.90
19060;DHT22;9663;48.996;8.334;2023-01-29T00:41:29;4.10;70.00
19060;DHT22;9663;48.996;8.334;2023-01-29T00:44:15;4.30;70.20
19060;DHT22;9663;48.996;8.334;2023-01-29T00:47:01;4.20;70.20
19060;DHT22;9663;48.996;8.334;2023-01-29T00:49:27;4.30;70.40
19060;DHT22;9663;48.996;8.334;2023-01-29T00:51:54;4.80;70.50
19060;DHT22;9663;48.996;8.334;2023-01-29T00:54:38;4.50;69.70
19060;DHT22;9663;48.996;8.334;2023-01-29T00:57:04;4.70;70.50
19060;DHT22;9663;48.996;8.334;2023-01-29T00:59:30;4.40;70.10
19060;DHT22;9663;48.996;8.334;2023-01-29T01:01:56;4.60;70.50
19060;DHT22;9663;48.996;8.334;2023-01-29T01:04:40;4.30;69.10
19060;DHT22;9663;48.996;8.334;2023-01-29T01:07:06;4.40;70.20
19060;DHT22;9663;48.996;8.334;2023-01-29T01:09:36;5.90;71.10
19060;DHT22;9663;48.996;8.334;2023-01-29T01:12:20;4.70;70.30
19060;DHT22;9663;48.996;8.334;2023-01-29T01:14:46;4.40;70.20
19060;DHT22;9663;48.996;8.334;2023-01-29T01:17:12;3.90;70.00
19060;DHT22;9663;48.996;8.334;2023-01-29T01:19:39;4.50;70.30
19060;DHT22;9663;48.996;8.334;2023-01-29T01:22:05;4.30;70.20
19060;DHT22;9663;48.996;8.334;2023-01-29T01:24:31;4.70;70.30
19060;DHT22;9663;48.996;8.334;2023-01-29T01:26:57;4.40;70.30
19060;DHT22;9663;48.996;8.334;2023-01-29T01:29:22;4.30;70.20
19060;DHT22;9663;48.996;8.334;2023-01-29T01:31:48;4.60;70.20
19060;DHT22;9663;48.996;8.334;2023-01-29T01:34:14;4.10;70.00
19060;DHT22;9663;48.996;8.334;2023-01-29T01:36:40;4.40;70.30
19060;DHT22;9663;48.996;8.334;2023-01-29T01:39:06;4.50;70.30
19060;DHT22;9663;48.996;8.334;2023-01-29T01:41:31;4.40;70.20
19060;DHT22;9663;48.996;8.334;2023-01-29T01:43:59;4.60;70.20
19060;DHT22;9663;48.996;8.334;2023-01-29T01:46:31;4.30;70.20
19060;DHT22;9663;48.996;8.334;2023-01-29T01:49:15;4.20;70.10
19060;DHT22;9663;48.996;8.334;2023-01-29T01:51:50;4.20;70.00
19060;DHT22;9663;48.996;8.334;2023-01-29T01:54:27;4.10;69.80
19060;DHT22;9663;48.996;8.334;2023-01-29T01:57:00;4.20;69.80
19060;DHT22;9663;48.996;8.334;2023-01-29T01:59:37;4.30;70.20
19060;DHT22;9663;48.996;8.334;2023-01-29T02:02:05;4.50;70.10
19060;DHT22;9663;48.996;8.334;2023-01-29T02:04:51;4.80;70.40
19060;DHT22;9663;48.996;8.334;2023-01-29T02:07:41;3.90;69.90
19060;DHT22;9663;48.996;8.334;2023-01-29T02:10:33;4.10;69.80
19060;DHT22;9663;48.996;8.334;2023-01-29T02:13:06;4.20;70.10
19060;DHT22;9663;48.996;8.334;2023-01-29T02:15:32;4.00;69.90
19060;DHT22;9663;48.996;8.334;2023-01-29T02:17:58;4.40;70.20
19060;DHT22;9663;48.996;8.334;2023-01-29T02:20:26;4.30;70.20
19060;DHT22;9663;48.996;8.334;2023-01-29T02:23:14;4.10;70.10
19060;DHT22;9663;48.996;8.334;2023-01-29T02:32:07;4.10;68.60
19060;DHT22;9663;48.996;8.334;2023-01-29T02:34:47;4.30;68.60
19060;DHT22;9663;48.996;8.334;2023-01-29T02:41:20;4.00;68.40
19060;DHT22;9663;48.996;8.334;2023-01-29T02:44:00;4.10;68.50
19060;DHT22;9663;48.996;8.334;2023-01-29T02:49:59;4.00;68.80
19060;DHT22;9663;48.996;8.334;2023-01-29T02:52:34;4.20;69.10
19060;DHT22;9663;48.996;8.334;2023-01-29T02:55:24;4.00;70.20
19060;DHT22;9663;48.996;8.334;2023-01-29T02:58:04;3.70;70.00
19060;DHT22;9663;48.996;8.334;2023-01-29T03:00:40;3.90;70.10
19060;DHT22;9663;48.996;8.334;2023-01-29T03:05:59;4.20;69.10
19060;DHT22;9663;48.996;8.334;2023-01-29T03:08:35;3.70;70.40
19060;DHT22;9663;48.996;8.334;2023-01-29T03:11:11;4.30;70.70
19060;DHT22;9663;48.996;8.334;2023-01-29T03:16:23;4.10;69.10
19060;DHT22;9663;48.996;8.334;2023-01-29T03:19:03;3.70;68.70
19060;DHT22;9663;48.996;8.334;2023-01-29T03:21:37;3.80;70.20
19060;DHT22;9663;48.996;8.334;2023-01-29T03:24:43;4.00;70.40
19060;DHT22;9663;48.996;8.334;2023-01-29T03:27:43;3.30;68.70
19060;DHT22;9663;48.996;8.334;2023-01-29T03:30:34;4.20;70.70
19060;DHT22;9663;48.996;8.334;2023-01-29T03:33:25;3.90;70.70
19060;DHT22;9663;48.996;8.334;2023-01-29T03:36:28;4.00;70.20
19060;DHT22;9663;48.996;8.334;2023-01-29T03:39:06;4.10;69.70
19060;DHT22;9663;48.996;8.334;2023-01-29T03:41:37;3.90;70.10
19060;DHT22;9663;48.996;8.334;2023-01-29T03:47:23;3.90;68.70
19060;DHT22;9663;48.996;8.334;2023-01-29T03:49:58;3.90;70.00
19060;DHT22;9663;48.996;8.334;2023-01-29T03:53:07;4.00;69.90
19060;DHT22;9663;48.996;8.334;2023-01-29T03:55:40;3.90;69.80
19060;DHT22;9663;48.996;8.334;2023-01-29T03:58:52;3.80;69.80
19060;DHT22;9663;48.996;8.334;2023-01-29T04:01:28;4.00;68.50
19060;DHT22;9663;48.996;8.334;2023-01-29T04:04:25;3.70;69.70
19060;DHT22;9663;48.996;8.334;2023-01-29T04:06:59;4.10;70.00
19060;DHT22;9663;48.996;8.334;2023-01-29T04:09:49;4.00;70.10
19060;DHT22;9663;48.996;8.334;2023-01-29T04:12:29;3.80;69.70
19060;DHT22;9663;48.996;8.334;2023-01-29T04:15:01;3.40;69.60
19060;DHT22;9663;48.996;8.334;2023-01-29T04:17:38;3.90;70.10
19060;DHT22;9663;48.996;8.334;2023-01-29T04:20:08;3.70;68.40
19060;DHT22;9663;48.996;8.334;2023-01-29T04:22:37;3.70;69.40
19060;DHT22;9663;48.996;8.334;2023-01-29T04:25:07;3.90;70.10
19060;DHT22;9663;48.996;8.334;2023-01-29T04:33:34;3.80;68.70
19060;DHT22;9663;48.996;8.334;2023-01-29T04:39:19;3.40;68.40
19060;DHT22;9663;48.996;8.334;2023-01-29T04:41:53;3.90;70.10
19060;DHT22;9663;48.996;8.334;2023-01-29T04:44:49;3.90;70.10
19060;DHT22;9663;48.996;8.334;2023-01-29T04:47:36;3.40;68.30
19060;DHT22;9663;48.996;8.334;2023-01-29T04:53:45;4.10;68.70
19060;DHT22;9663;48.996;8.334;2023-01-29T04:59:38;3.30;68.00
19060;DHT22;9663;48.996;8.334;2023-01-29T05:02:09;3.50;69.70
19060;DHT22;9663;48.996;8.334;2023-01-29T05:04:38;4.00;70.20
19060;DHT22;9663;48.996;8.334;2023-01-29T05:07:09;3.70;70.10
19060;DHT22;9663;48.996;8.334;2023-01-29T05:09:38;3.80;70.00
19060;DHT22;9663;48.996;8.334;2023-01-29T05:12:09;3.60;70.00
19060;DHT22;9663;48.996;8.334;2023-01-29T05:14:41;3.40;69.80
19060;DHT22;9663;48.996;8.334;2023-01-29T05:17:17;3.90;70.10
19060;DHT22;9663;48.996;8.334;2023-01-29T05:19:44;3.50;68.40
19060;DHT22;9663;48.996;8.334;2023-01-29T05:22:14;3.90;70.30
19060;DHT22;9663;48.996;8.334;2023-01-29T05:24:41;3.70;69.90
19060;DHT22;9663;48.996;8.334;2023-01-29T05:27:14;4.30;70.30
19060;DHT22;9663;48.996;8.334;2023-01-29T05:30:01;3.80;70.00
19060;DHT22;9663;48.996;8.334;2023-01-29T05:32:26;4.10;70.20
19060;DHT22;9663;48.996;8.334;2023-01-29T05:34:52;4.10;70.30
19060;DHT22;9663;48.996;8.334;2023-01-29T05:37:17;4.10;70.10
19060;DHT22;9663;48.996;8.334;2023-01-29T05:39:43;4.50;70.40
19060;DHT22;9663;48.996;8.334;2023-01-29T05:42:09;3.80;69.80
19060;DHT22;9663;48.996;8.334;2023-01-29T05:44:34;4.40;70.10
19060;DHT22;9663;48.996;8.334;2023-01-29T05:47:00;3.70;69.70
19060;DHT22;9663;48.996;8.334;2023-01-29T05:49:27;3.70;69.70
19060;DHT22;9663;48.996;8.334;2023-01-29T05:51:53;4.20;70.10
19060;DHT22;9663;48.996;8.334;2023-01-29T05:54:18;3.60;69.70
19060;DHT22;9663;48.996;8.334;2023-01-29T05:56:44;5.10;70.70
19060;DHT22;9663;48.996;8.334;2023-01-29T05:59:10;3.70;69.90
19060;DHT22;9663;48.996;8.334;2023-01-29T06:01:35;3.80;69.90
19060;DHT22;9663;48.996;8.334;2023-01-29T06:04:01;3.80;70.10
19060;DHT22;9663;48.996;8.334;2023-01-29T06:06:27;4.00;70.00
19060;DHT22;9663;48.996;8.334;2023-01-29T06:08:53;4.00;69.80
19060;DHT22;9663;48.996;8.334;2023-01-29T06:11:20;4.00;70.20
19060;DHT22;9663;48.996;8.334;2023-01-29T06:13:46;4.10;70.10
19060;DHT22;9663;48.996;8.334;2023-01-29T06:16:13;3.60;69.70
19060;DHT22;9663;48.996;8.334;2023-01-29T06:18:40;3.70;69.90
19060;DHT22;9663;48.996;8.334;2023-01-29T06:21:09;3.80;70.70
19060;DHT22;9663;48.996;8.334;2023-01-29T06:23:36;4.10;70.00
19060;DHT22;9663;48.996;8.334;2023-01-29T06:26:05;3.80;69.90
19060;DHT22;9663;48.996;8.334;2023-01-29T06:28:33;3.90;69.90
19060;DHT22;9663;48.996;8.334;2023-01-29T06:31:01;3.70;69.70
19060;DHT22;9663;48.996;8.334;2023-01-29T06:33:27;3.50;69.80
19060;DHT22;9663;48.996;8.334;2023-01-29T06:36:01;3.70;69.90
19060;DHT22;9663;48.996;8.334;2023-01-29T06:38:28;4.10;70.00
19060;DHT22;9663;48.996;8.334;2023-01-29T06:40:55;4.50;70.40
19060;DHT22;9663;48.996;8.334;2023-01-29T06:43:22;3.70;69.90
19060;DHT22;9663;48.996;8.334;2023-01-29T06:45:55;3.60;69.90
19060;DHT22;9663;48.996;8.334;2023-01-29T06:48:23;5.10;70.60
19060;DHT22;9663;48.996;8.334;2023-01-29T06:50:49;4.80;70.50
19060;DHT22;9663;48.996;8.334;2023-01-29T06:53:16;3.50;69.70
19060;DHT22;9663;48.996;8.334;2023-01-29T06:55:43;3.90;70.00
19060;DHT22;9663;48.996;8.334;2023-01-29T06:58:10;3.70;69.90
19060;DHT22;9663;48.996;8.334;2023-01-29T07:00:37;3.90;70.10
19060;DHT22;9663;48.996;8.334;2023-01-29T07:03:03;3.50;69.70
19060;DHT22;9663;48.996;8.334;2023-01-29T07:05:29;3.80;69.90
19060;DHT22;9663;48.996;8.334;2023-01-29T07:07:56;4.00;70.10
19060;DHT22;9663;48.996;8.334;2023-01-29T07:10:22;3.20;69.90
19060;DHT22;9663;48.996;8.334;2023-01-29T07:12:48;3.00;69.90
19060;DHT22;9663;48.996;8.334;2023-01-29T07:15:14;3.80;70.40
19060;DHT22;9663;48.996;8.334;2023-01-29T07:17:57;3.50;70.20
19060;DHT22;9663;48.996;8.334;2023-01-29T07:20:26;3.90;70.30
19060;DHT22;9663;48.996;8.334;2023-01-29T07:22:53;3.70;70.30
19060;DHT22;9663;48.996;8.334;2023-01-29T07:25:21;6.60;72.20
19060;DHT22;9663;48.996;8.334;2023-01-29T07:27:47;3.70;70.50
19060;DHT22;9663;48.996;8.334;2023-01-29T07:30:14;3.90;70.40
19060;DHT22;9663;48.996;8.334;2023-01-29T07:32:40;3.90;70.20
19060;DHT22;9663;48.996;8.334;2023-01-29T07:35:06;4.00;70.40
19060;DHT22;9663;48.996;8.334;2023-01-29T07:37:32;3.70;69.70
19060;DHT22;9663;48.996;8.334;2023-01-29T07:39:58;3.80;70.20
19060;DHT22;9663;48.996;8.334;2023-01-29T07:42:24;4.20;70.30
19060;DHT22;9663;48.996;8.334;2023-01-29T07:44:49;4.10;70.40
19060;DHT22;9663;48.996;8.334;2023-01-29T07:47:15;4.10;70.10
19060;DHT22;9663;48.996;8.334;2023-01-29T07:49:41;5.00;70.60
19060;DHT22;9663;48.996;8.334;2023-01-29T07:52:06;4.80;70.30
19060;DHT22;9663;48.996;8.334;2023-01-29T07:54:32;3.90;70.00
19060;DHT22;9663;48.996;8.334;2023-01-29T07:56:57;4.30;69.90
19060;DHT22;9663;48.996;8.334;2023-01-29T07:59:23;4.00;69.50
19060;DHT22;9663;48.996;8.334;2023-01-29T08:01:49;4.30;70.00
19060;DHT22;9663;48.996;8.334;2023-01-29T08:04:22;4.40;70.10
19060;DHT22;9663;48.996;8.334;2023-01-29T08:06:48;4.60;70.10
19060;DHT22;9663;48.996;8.334;2023-01-29T08:09:13;3.40;69.40
19060;DHT22;9663;48.996;8.334;2023-01-29T08:11:39;4.20;70.80
19060;DHT22;9663;48.996;8.334;2023-01-29T08:14:05;4.60;69.80
19060;DHT22;9663;48.996;8.334;2023-01-29T08:16:30;4.40;69.70
19060;DHT22;9663;48.996;8.334;2023-01-29T08:18:56;5.80;70.20
19060;DHT22;9663;48.996;8.334;2023-01-29T08:21:21;4.50;69.60
19060;DHT22;9663;48.996;8.334;2023-01-29T08:23:50;4.80;69.50
19060;DHT22;9663;48.996;8.334;2023-01-29T08:26:16;4.00;69.20
19060;DHT22;9663;48.996;8.334;2023-01-29T08:28:41;4.50;69.50
19060;DHT22;9663;48.996;8.334;2023-01-29T08:31:15;4.40;69.40
19060;DHT22;9663;48.996;8.334;2023-01-29T08:33:41;4.30;69.30
19060;DHT22;9663;48.996;8.334;2023-01-29T08:36:08;4.20;69.50
19060;DHT22;9663;48.996;8.334;2023-01-29T08:38:34;4.60;69.10
19060;DHT22;9663;48.996;8.334;2023-01-29T08:41:00;4.10;69.50
19060;DHT22;9663;48.996;8.334;2023-01-29T08:43:25;4.50;69.40
19060;DHT22;9663;48.996;8.334;2023-01-29T08:45:51;4.90;69.80
19060;DHT22;9663;48.996;8.334;2023-01-29T08:48:17;5.40;69.90
19060;DHT22;9663;48.996;8.334;2023-01-29T08:50:42;4.70;69.40
19060;DHT22;9663;48.996;8.334;2023-01-29T08:53:09;5.10;69.60
19060;DHT22;9663;48.996;8.334;2023-01-29T08:55:36;5.00;69.20
19060;DHT22;9663;48.996;8.334;2023-01-29T08:58:09;5.10;69.20
19060;DHT22;9663;48.996;8.334;2023-01-29T09:00:36;4.60;67.50
19060;DHT22;9663;48.996;8.334;2023-01-29T09:03:02;5.00;69.00
19060;DHT22;9663;48.996;8.334;2023-01-29T09:05:28;4.50;68.20
19060;DHT22;9663;48.996;8.334;2023-01-29T09:07:57;4.90;68.40
19060;DHT22;9663;48.996;8.334;2023-01-29T09:10:23;5.00;68.50
19060;DHT22;9663;48.996;8.334;2023-01-29T09:12:48;5.40;69.00
19060;DHT22;9663;48.996;8.334;2023-01-29T09:15:14;5.30;68.90
19060;DHT22;9663;48.996;8.334;2023-01-29T09:17:40;5.80;69.10
19060;DHT22;9663;48.996;8.334;2023-01-29T09:20:06;4.90;68.30
19060;DHT22;9663;48.996;8.334;2023-01-29T09:22:32;5.20;67.60
19060;DHT22;9663;48.996;8.334;2023-01-29T09:24:58;5.40;68.10
19060;DHT22;9663;48.996;8.334;2023-01-29T09:27:24;5.40;68.10
19060;DHT22;9663;48.996;8.334;2023-01-29T09:29:50;5.10;67.60
19060;DHT22;9663;48.996;8.334;2023-01-29T09:32:15;5.50;67.60
19060;DHT22;9663;48.996;8.334;2023-01-29T09:34:41;5.30;67.70
19060;DHT22;9663;48.996;8.334;2023-01-29T09:37:07;5.20;67.70
19060;DHT22;9663;48.996;8.334;2023-01-29T09:39:33;5.80;68.20
19060;DHT22;9663;48.996;8.334;2023-01-29T09:42:04;5.10;67.40
19060;DHT22;9663;48.996;8.334;2023-01-29T09:47:15;5.50;66.00
19060;DHT22;9663;48.996;8.334;2023-01-29T09:49:46;6.10;68.20
19060;DHT22;9663;48.996;8.334;2023-01-29T09:52:19;5.20;67.60
19060;DHT22;9663;48.996;8.334;2023-01-29T09:55:04;5.40;67.50
19060;DHT22;9663;48.996;8.334;2023-01-29T09:57:52;5.80;67.80
19060;DHT22;9663;48.996;8.334;2023-01-29T10:21:19;6.10;67.60
19060;DHT22;9663;48.996;8.334;2023-01-29T10:24:31;6.60;66.10
19060;DHT22;9663;48.996;8.334;2023-01-29T10:27:00;6.20;65.80
19060;DHT22;9663;48.996;8.334;2023-01-29T10:29:28;6.50;67.80
19060;DHT22;9663;48.996;8.334;2023-01-29T10:31:57;7.50;67.90
19060;DHT22;9663;48.996;8.334;2023-01-29T10:34:45;6.50;67.70
19060;DHT22;9663;48.996;8.334;2023-01-29T10:37:38;6.50;66.50
19060;DHT22;9663;48.996;8.334;2023-01-29T10:40:21;6.70;66.40
19060;DHT22;9663;48.996;8.334;2023-01-29T10:43:02;6.60;64.80
19060;DHT22;9663;48.996;8.334;2023-01-29T10:45:44;6.70;65.10
19060;DHT22;9663;48.996;8.334;2023-01-29T10:52:05;6.70;64.50
19060;DHT22;9663;48.996;8.334;2023-01-29T10:54:57;7.40;64.30
19060;DHT22;9663;48.996;8.334;2023-01-29T10:57:58;7.10;65.90
19060;DHT22;9663;48.996;8.334;2023-01-29T11:00:37;7.40;64.60
19060;DHT22;9663;48.996;8.334;2023-01-29T11:03:25;7.20;65.70
19060;DHT22;9663;48.996;8.334;2023-01-29T11:08:41;7.20;63.80
19060;DHT22;9663;48.996;8.334;2023-01-29T11:11:17;7.10;65.30
19060;DHT22;9663;48.996;8.334;2023-01-29T11:13:55;6.50;63.60
19060;DHT22;9663;48.996;8.334;2023-01-29T11:16:25;7.40;64.40
19060;DHT22;9663;48.996;8.334;2023-01-29T11:18:56;7.10;65.80
19060;DHT22;9663;48.996;8.334;2023-01-29T11:21:25;8.70;66.80
19060;DHT22;9663;48.996;8.334;2023-01-29T11:24:12;7.30;65.80
19060;DHT22;9663;48.996;8.334;2023-01-29T11:26:43;7.30;63.70
19060;DHT22;9663;48.996;8.334;2023-01-29T11:29:38;7.10;65.20
19060;DHT22;9663;48.996;8.334;2023-01-29T11:32:23;7.20;63.00
19060;DHT22;9663;48.996;8.334;2023-01-29T11:35:03;7.40;63.70
19060;DHT22;9663;48.996;8.334;2023-01-29T11:37:45;7.30;63.70
19060;DHT22;9663;48.996;8.334;2023-01-29T11:42:43;7.70;64.90
19060;DHT22;9663;48.996;8.334;2023-01-29T11:45:25;7.70;64.80
19060;DHT22;9663;48.996;8.334;2023-01-29T11:47:55;9.90;65.00
19060;DHT22;9663;48.996;8.334;2023-01-29T11:50:29;8.90;64.30
19060;DHT22;9663;48.996;8.334;2023-01-29T11:53:00;8.70;63.40
19060;DHT22;9663;48.996;8.334;2023-01-29T11:55:31;8.80;63.20
19060;DHT22;9663;48.996;8.334;2023-01-29T11:58:17;9.40;63.40
19060;DHT22;9663;48.996;8.334;2023-01-29T12:00:49;10.00;62.20
19060;DHT22;9663;48.996;8.334;2023-01-29T12:03:29;10.40;62.50
19060;DHT22;9663;48.996;8.334;2023-01-29T12:06:05;10.20;60.40
19060;DHT22;9663;48.996;8.334;2023-01-29T12:08:37;10.30;61.30
19060;DHT22;9663;48.996;8.334;2023-01-29T12:11:12;10.70;61.30
19060;DHT22;9663;48.996;8.334;2023-01-29T12:13:53;11.50;59.80
19060;DHT22;9663;48.996;8.334;2023-01-29T12:16:34;11.80;60.80
19060;DHT22;9663;48.996;8.334;2023-01-29T12:22:04;11.90;58.50
19060;DHT22;9663;48.996;8.334;2023-01-29T12:24:56;12.30;58.80
19060;DHT22;9663;48.996;8.334;2023-01-29T12:27:47;12.90;58.60
19060;DHT22;9663;48.996;8.334;2023-01-29T12:30:28;14.90;58.40
19060;DHT22;9663;48.996;8.334;2023-01-29T12:33:19;14.00;57.50
19060;DHT22;9663;48.996;8.334;2023-01-29T12:36:30;14.50;56.40
19060;DHT22;9663;48.996;8.334;2023-01-29T12:39:01;15.10;54.80
19060;DHT22;9663;48.996;8.334;2023-01-29T12:44:23;15.40;54.40
19060;DHT22;9663;48.996;8.334;2023-01-29T12:46:58;15.60;53.60
19060;DHT22;9663;48.996;8.334;2023-01-29T12:49:32;16.40;55.30
19060;DHT22;9663;48.996;8.334;2023-01-29T12:52:15;17.10;55.20
19060;DHT22;9663;48.996;8.334;2023-01-29T12:54:52;15.80;53.40
19060;DHT22;9663;48.996;8.334;2023-01-29T13:00:12;14.50;52.40
19060;DHT22;9663;48.996;8.334;2023-01-29T13:08:33;12.50;53.40
19060;DHT22;9663;48.996;8.334;2023-01-29T13:11:12;11.90;54.90
19060;DHT22;9663;48.996;8.334;2023-01-29T13:13:58;10.80;55.60
19060;DHT22;9663;48.996;8.334;2023-01-29T13:16:32;10.20;56.60
19060;DHT22;9663;48.996;8.334;2023-01-29T13:22:09;9.90;57.40
19060;DHT22;9663;48.996;8.334;2023-01-29T13:24:41;9.80;59.10
19060;DHT22;9663;48.996;8.334;2023-01-29T13:27:20;9.40;59.50
19060;DHT22;9663;48.996;8.334;2023-01-29T13:29:49;9.20;59.50
19060;DHT22;9663;48.996;8.334;2023-01-29T13:32:27;9.30;60.00
19060;DHT22;9663;48.996;8.334;2023-01-29T13:35:01;9.20;58.60
19060;DHT22;9663;48.996;8.334;2023-01-29T13:37:39;9.20;60.00
19060;DHT22;9663;48.996;8.334;2023-01-29T13:40:19;9.50;59.20
19060;DHT22;9663;48.996;8.334;2023-01-29T13:42:49;10.80;61.00
19060;DHT22;9663;48.996;8.334;2023-01-29T13:45:33;9.30;60.60
19060;DHT22;9663;48.996;8.334;2023-01-29T13:50:50;9.20;59.20
19060;DHT22;9663;48.996;8.334;2023-01-29T13:53:23;8.60;59.70
19060;DHT22;9663;48.996;8.334;2023-01-29T13:55:51;10.50;60.70
19060;DHT22;9663;48.996;8.334;2023-01-29T14:00:58;8.40;59.20
19060;DHT22;9663;48.996;8.334;2023-01-29T14:13:41;8.10;60.10
19060;DHT22;9663;48.996;8.334;2023-01-29T14:18:35;8.10;61.00
19060;DHT22;9663;48.996;8.334;2023-01-29T14:21:20;7.80;61.10
19060;DHT22;9663;48.996;8.334;2023-01-29T14:23:51;7.90;61.50
19060;DHT22;9663;48.996;8.334;2023-01-29T14:31:35;7.80;61.20
19060;DHT22;9663;48.996;8.334;2023-01-29T14:37:02;7.90;61.20
19060;DHT22;9663;48.996;8.334;2023-01-29T14:39:54;8.00;61.20
19060;DHT22;9663;48.996;8.334;2023-01-29T14:42:58;7.70;59.90
19060;DHT22;9663;48.996;8.334;2023-01-29T14:45:31;7.60;61.00
19060;DHT22;9663;48.996;8.334;2023-01-29T14:48:00;7.70;61.30
19060;DHT22;9663;48.996;8.334;2023-01-29T14:58:48;7.90;60.70
19060;DHT22;9663;48.996;8.334;2023-01-29T15:04:13;6.90;60.00
19060;DHT22;9663;48.996;8.334;2023-01-29T15:06:49;8.20;62.30
19060;DHT22;9663;48.996;8.334;2023-01-29T15:12:23;6.90;60.50
19060;DHT22;9663;48.996;8.334;2023-01-29T15:14:58;7.30;60.70
19060;DHT22;9663;48.996;8.334;2023-01-29T15:20:27;7.00;60.70
19060;DHT22;9663;48.996;8.334;2023-01-29T15:22:54;6.60;62.20
19060;DHT22;9663;48.996;8.334;2023-01-29T15:25:20;6.80;62.80
19060;DHT22;9663;48.996;8.334;2023-01-29T15:27:47;7.30;63.30
19060;DHT22;9663;48.996;8.334;2023-01-29T15:30:20;6.50;62.60
19060;DHT22;9663;48.996;8.334;2023-01-29T15:32:50;7.20;63.30
19060;DHT22;9663;48.996;8.334;2023-01-29T15:35:30;6.70;62.50
19060;DHT22;9663;48.996;8.334;2023-01-29T15:40:29;6.60;62.50
19060;DHT22;9663;48.996;8.334;2023-01-29T15:42:55;6.60;62.60
19060;DHT22;9663;48.996;8.334;2023-01-29T15:45:31;6.50;62.30
19060;DHT22;9663;48.996;8.334;2023-01-29T15:48:03;6.80;60.90
19060;DHT22;9663;48.996;8.334;2023-01-29T15:50:34;6.70;61.20
19060;DHT22;9663;48.996;8.334;2023-01-29T15:53:06;7.60;63.50
19060;DHT22;9663;48.996;8.334;2023-01-29T15:55:38;6.50;62.80
19060;DHT22;9663;48.996;8.334;2023-01-29T15:58:06;6.50;62.90
19060;DHT22;9663;48.996;8.334;2023-01-29T16:00:39;6.60;63.00
19060;DHT22;9663;48.996;8.334;2023-01-29T16:03:13;6.20;62.90
19060;DHT22;9663;48.996;8.334;2023-01-29T16:05:40;6.10;63.20
19060;DHT22;9663;48.996;8.334;2023-01-29T16:08:08;5.90;63.30
19060;DHT22;9663;48.996;8.334;2023-01-29T16:10:39;6.00;63.50
19060;DHT22;9663;48.996;8.334;2023-01-29T16:13:15;6.00;63.60
19060;DHT22;9663;48.996;8.334;2023-01-29T16:16:13;5.50;63.40
19060;DHT22;9663;48.996;8.334;2023-01-29T16:18:45;6.00;63.70
19060;DHT22;9663;48.996;8.334;2023-01-29T16:21:23;7.00;64.70
19060;DHT22;9663;48.996;8.334;2023-01-29T16:23:57;7.20;64.70
19060;DHT22;9663;48.996;8.334;2023-01-29T16:26:28;5.60;64.00
19060;DHT22;9663;48.996;8.334;2023-01-29T16:29:06;5.20;64.10
19060;DHT22;9663;48.996;8.334;2023-01-29T16:31:35;5.10;63.90
19060;DHT22;9663;48.996;8.334;2023-01-29T16:34:13;5.00;64.00
19060;DHT22;9663;48.996;8.334;2023-01-29T16:36:47;5.40;62.70
19060;DHT22;9663;48.996;8.334;2023-01-29T16:39:20;4.90;64.20
19060;DHT22;9663;48.996;8.334;2023-01-29T16:44:57;5.00;63.10
19060;DHT22;9663;48.996;8.334;2023-01-29T16:47:30;5.00;63.30
19060;DHT22;9663;48.996;8.334;2023-01-29T16:52:59;4.80;65.60
19060;DHT22;9663;48.996;8.334;2023-01-29T16:55:44;4.70;64.80
19060;DHT22;9663;48.996;8.334;2023-01-29T16:58:15;4.60;64.80
19060;DHT22;9663;48.996;8.334;2023-01-29T17:00:51;4.50;65.00
19060;DHT22;9663;48.996;8.334;2023-01-29T17:03:18;4.40;65.10
19060;DHT22;9663;48.996;8.334;2023-01-29T17:05:45;5.00;65.70
19060;DHT22;9663;48.996;8.334;2023-01-29T17:08:29;4.40;65.60
19060;DHT22;9663;48.996;8.334;2023-01-29T17:10:57;4.80;64.10
19060;DHT22;9663;48.996;8.334;2023-01-29T17:13:38;4.40;65.10
19060;DHT22;9663;48.996;8.334;2023-01-29T17:16:20;4.00;63.30
19060;DHT22;9663;48.996;8.334;2023-01-29T17:18:49;4.50;65.40
19060;DHT22;9663;48.996;8.334;2023-01-29T17:21:15;4.00;65.10
19060;DHT22;9663;48.996;8.334;2023-01-29T17:23:41;4.40;65.30
19060;DHT22;9663;48.996;8.334;2023-01-29T17:26:10;3.80;64.80
19060;DHT22;9663;48.996;8.334;2023-01-29T17:28:37;6.00;66.70
19060;DHT22;9663;48.996;8.334;2023-01-29T17:31:04;4.10;65.80
19060;DHT22;9663;48.996;8.334;2023-01-29T17:33:31;4.50;65.90
19060;DHT22;9663;48.996;8.334;2023-01-29T17:35:57;3.80;65.60
19060;DHT22;9663;48.996;8.334;2023-01-29T17:38:23;4.30;65.70
19060;DHT22;9663;48.996;8.334;2023-01-29T17:41:03;4.00;65.60
19060;DHT22;9663;48.996;8.334;2023-01-29T17:43:50;3.80;65.70
19060;DHT22;9663;48.996;8.334;2023-01-29T17:46:16;3.90;65.60
19060;DHT22;9663;48.996;8.334;2023-01-29T17:48:45;3.90;66.10
19060;DHT22;9663;48.996;8.334;2023-01-29T17:51:16;3.80;66.10
19060;DHT22;9663;48.996;8.334;2023-01-29T17:53:43;3.60;65.90
19060;DHT22;9663;48.996;8.334;2023-01-29T17:56:25;3.60;65.90
19060;DHT22;9663;48.996;8.334;2023-01-29T17:58:55;3.50;64.40
19060;DHT22;9663;48.996;8.334;2023-01-29T18:01:21;3.70;66.10
19060;DHT22;9663;48.996;8.334;2023-01-29T18:03:46;3.60;66.10
19060;DHT22;9663;48.996;8.334;2023-01-29T18:06:23;4.90;67.10
19060;DHT22;9663;48.996;8.334;2023-01-29T18:08:52;3.90;66.50
19060;DHT22;9663;48.996;8.334;2023-01-29T18:11:17;3.70;66.20
19060;DHT22;9663;48.996;8.334;2023-01-29T18:13:43;3.70;66.30
19060;DHT22;9663;48.996;8.334;2023-01-29T18:16:09;4.20;66.70
19060;DHT22;9663;48.996;8.334;2023-01-29T18:18:34;3.50;66.50
19060;DHT22;9663;48.996;8.334;2023-01-29T18:21:00;4.00;66.80
19060;DHT22;9663;48.996;8.334;2023-01-29T18:23:26;3.40;66.60
19060;DHT22;9663;48.996;8.334;2023-01-29T18:25:53;3.30;66.40
19060;DHT22;9663;48.996;8.334;2023-01-29T18:28:22;3.40;66.30
19060;DHT22;9663;48.996;8.334;2023-01-29T18:30:48;4.00;67.00
19060;DHT22;9663;48.996;8.334;2023-01-29T18:33:15;2.10;65.90
19060;DHT22;9663;48.996;8.334;2023-01-29T18:35:47;4.10;67.20
19060;DHT22;9663;48.996;8.334;2023-01-29T18:38:13;3.30;65.80
19060;DHT22;9663;48.996;8.334;2023-01-29T18:40:39;3.40;66.60
19060;DHT22;9663;48.996;8.334;2023-01-29T18:43:05;3.30;66.70
19060;DHT22;9663;48.996;8.334;2023-01-29T18:45:31;3.50;66.70
19060;DHT22;9663;48.996;8.334;2023-01-29T18:47:57;3.30;66.90
19060;DHT22;9663;48.996;8.334;2023-01-29T18:50:23;3.20;66.80
19060;DHT22;9663;48.996;8.334;2023-01-29T18:52:54;3.40;67.10